Terminal Aerodrome Forecast
Issued by NWS

Home | Current Version | Previous Version | Text Only | Print | Product List | Glossary On
Versions: 1 2 3 4 5 6 7 8 9 10 11 12 13
000
FTUS45 KREV 012339
TAFMMH
TAF
KMMH 012339Z 0200/0224 30009KT P6SM SCT060 BKN120
     FM020100 30010G18KT P6SM SCT070 BKN120
     FM020400 VRB04KT P6SM SCT120 BKN180
     FM021600 12008KT P6SM SCT120 BKN180=

USA.gov is the U.S. government's official web portal to all federal, state and local government web resources and services.